sensor_id;sensor_type;location;lat;lon;timestamp;P1;durP1;ratioP1;P2;durP2;ratioP2
9880;SDS011;4979;51.014;6.678;2023-08-24T00:00:30;6.72;;;3.42;;
9880;SDS011;4979;51.014;6.678;2023-08-24T00:02:57;11.75;;;3.40;;
9880;SDS011;4979;51.014;6.678;2023-08-24T00:05:23;10.82;;;3.15;;
9880;SDS011;4979;51.014;6.678;2023-08-24T00:07:48;6.72;;;3.05;;
9880;SDS011;4979;51.014;6.678;2023-08-24T00:10:14;5.65;;;3.35;;
9880;SDS011;4979;51.014;6.678;2023-08-24T00:12:40;3.38;;;2.72;;
9880;SDS011;4979;51.014;6.678;2023-08-24T00:15:07;5.35;;;3.00;;
9880;SDS011;4979;51.014;6.678;2023-08-24T00:17:34;4.50;;;2.92;;
9880;SDS011;4979;51.014;6.678;2023-08-24T00:19:59;5.65;;;2.65;;
9880;SDS011;4979;51.014;6.678;2023-08-24T00:22:29;4.10;;;2.78;;
9880;SDS011;4979;51.014;6.678;2023-08-24T00:24:55;6.32;;;3.15;;
9880;SDS011;4979;51.014;6.678;2023-08-24T00:27:20;3.95;;;2.67;;
9880;SDS011;4979;51.014;6.678;2023-08-24T00:29:46;7.32;;;2.97;;
9880;SDS011;4979;51.014;6.678;2023-08-24T00:32:11;7.63;;;3.10;;
9880;SDS011;4979;51.014;6.678;2023-08-24T00:34:37;3.42;;;2.60;;
9880;SDS011;4979;51.014;6.678;2023-08-24T00:37:02;4.78;;;3.65;;
9880;SDS011;4979;51.014;6.678;2023-08-24T00:39:28;14.25;;;8.38;;
9880;SDS011;4979;51.014;6.678;2023-08-24T00:41:54;17.40;;;6.70;;
9880;SDS011;4979;51.014;6.678;2023-08-24T00:44:20;4.18;;;3.10;;
9880;SDS011;4979;51.014;6.678;2023-08-24T00:46:45;9.23;;;3.35;;
9880;SDS011;4979;51.014;6.678;2023-08-24T00:49:11;5.22;;;2.88;;
9880;SDS011;4979;51.014;6.678;2023-08-24T00:51:36;8.07;;;2.97;;
9880;SDS011;4979;51.014;6.678;2023-08-24T00:54:03;4.97;;;2.95;;
9880;SDS011;4979;51.014;6.678;2023-08-24T00:56:29;7.90;;;3.55;;
9880;SDS011;4979;51.014;6.678;2023-08-24T00:58:55;6.82;;;4.25;;
9880;SDS011;4979;51.014;6.678;2023-08-24T01:01:22;5.88;;;3.72;;
9880;SDS011;4979;51.014;6.678;2023-08-24T01:03:49;5.68;;;3.60;;
9880;SDS011;4979;51.014;6.678;2023-08-24T01:06:15;8.35;;;3.13;;
9880;SDS011;4979;51.014;6.678;2023-08-24T01:08:40;4.90;;;3.20;;
9880;SDS011;4979;51.014;6.678;2023-08-24T01:11:12;3.63;;;2.95;;
9880;SDS011;4979;51.014;6.678;2023-08-24T01:16:29;4.10;;;3.03;;
9880;SDS011;4979;51.014;6.678;2023-08-24T01:18:58;4.53;;;3.00;;
9880;SDS011;4979;51.014;6.678;2023-08-24T01:21:27;8.40;;;3.42;;
9880;SDS011;4979;51.014;6.678;2023-08-24T01:24:04;6.38;;;3.10;;
9880;SDS011;4979;51.014;6.678;2023-08-24T01:26:37;8.88;;;3.67;;
9880;SDS011;4979;51.014;6.678;2023-08-24T01:29:04;6.53;;;3.50;;
9880;SDS011;4979;51.014;6.678;2023-08-24T01:31:32;8.38;;;3.00;;
9880;SDS011;4979;51.014;6.678;2023-08-24T01:33:57;5.95;;;3.15;;
9880;SDS011;4979;51.014;6.678;2023-08-24T01:36:23;7.53;;;3.33;;
9880;SDS011;4979;51.014;6.678;2023-08-24T01:38:59;7.30;;;3.25;;
9880;SDS011;4979;51.014;6.678;2023-08-24T01:41:33;6.43;;;2.95;;
9880;SDS011;4979;51.014;6.678;2023-08-24T01:44:03;5.80;;;2.83;;
9880;SDS011;4979;51.014;6.678;2023-08-24T01:46:31;8.13;;;3.00;;
9880;SDS011;4979;51.014;6.678;2023-08-24T01:48:59;5.32;;;2.90;;
9880;SDS011;4979;51.014;6.678;2023-08-24T01:51:25;6.10;;;3.20;;
9880;SDS011;4979;51.014;6.678;2023-08-24T01:53:51;5.15;;;3.17;;
9880;SDS011;4979;51.014;6.678;2023-08-24T01:56:18;6.35;;;3.90;;
9880;SDS011;4979;51.014;6.678;2023-08-24T01:58:43;9.77;;;3.53;;
9880;SDS011;4979;51.014;6.678;2023-08-24T02:01:09;5.32;;;3.65;;
9880;SDS011;4979;51.014;6.678;2023-08-24T02:03:35;4.85;;;3.08;;
9880;SDS011;4979;51.014;6.678;2023-08-24T02:06:01;6.78;;;3.50;;
9880;SDS011;4979;51.014;6.678;2023-08-24T02:08:26;9.95;;;4.07;;
9880;SDS011;4979;51.014;6.678;2023-08-24T02:10:52;5.50;;;3.38;;
9880;SDS011;4979;51.014;6.678;2023-08-24T02:13:18;5.53;;;2.80;;
9880;SDS011;4979;51.014;6.678;2023-08-24T02:15:43;6.93;;;3.88;;
9880;SDS011;4979;51.014;6.678;2023-08-24T02:18:09;4.85;;;3.25;;
9880;SDS011;4979;51.014;6.678;2023-08-24T02:20:37;7.88;;;3.97;;
9880;SDS011;4979;51.014;6.678;2023-08-24T02:23:03;7.55;;;3.85;;
9880;SDS011;4979;51.014;6.678;2023-08-24T02:25:29;10.55;;;3.20;;
9880;SDS011;4979;51.014;6.678;2023-08-24T02:27:55;8.73;;;3.58;;
9880;SDS011;4979;51.014;6.678;2023-08-24T02:30:21;6.90;;;3.40;;
9880;SDS011;4979;51.014;6.678;2023-08-24T02:32:46;7.72;;;3.88;;
9880;SDS011;4979;51.014;6.678;2023-08-24T02:35:12;6.32;;;3.53;;
9880;SDS011;4979;51.014;6.678;2023-08-24T02:37:38;5.97;;;3.70;;
9880;SDS011;4979;51.014;6.678;2023-08-24T02:40:04;7.43;;;3.33;;
9880;SDS011;4979;51.014;6.678;2023-08-24T02:42:31;7.32;;;3.97;;
9880;SDS011;4979;51.014;6.678;2023-08-24T02:44:57;6.53;;;3.67;;
9880;SDS011;4979;51.014;6.678;2023-08-24T02:47:23;7.80;;;4.05;;
9880;SDS011;4979;51.014;6.678;2023-08-24T02:49:48;6.53;;;3.75;;
9880;SDS011;4979;51.014;6.678;2023-08-24T02:52:14;7.85;;;3.50;;
9880;SDS011;4979;51.014;6.678;2023-08-24T02:54:40;6.70;;;3.83;;
9880;SDS011;4979;51.014;6.678;2023-08-24T02:57:05;5.15;;;3.60;;
9880;SDS011;4979;51.014;6.678;2023-08-24T02:59:31;6.15;;;3.92;;
9880;SDS011;4979;51.014;6.678;2023-08-24T03:01:57;8.00;;;3.63;;
9880;SDS011;4979;51.014;6.678;2023-08-24T03:04:23;8.55;;;3.83;;
9880;SDS011;4979;51.014;6.678;2023-08-24T03:06:48;11.20;;;4.05;;
9880;SDS011;4979;51.014;6.678;2023-08-24T03:09:14;13.35;;;4.10;;
9880;SDS011;4979;51.014;6.678;2023-08-24T03:11:40;5.45;;;3.92;;
9880;SDS011;4979;51.014;6.678;2023-08-24T03:14:06;6.22;;;4.00;;
9880;SDS011;4979;51.014;6.678;2023-08-24T03:16:31;14.27;;;4.57;;
9880;SDS011;4979;51.014;6.678;2023-08-24T03:18:57;7.90;;;4.35;;
9880;SDS011;4979;51.014;6.678;2023-08-24T03:21:23;7.07;;;3.70;;
9880;SDS011;4979;51.014;6.678;2023-08-24T03:23:49;8.65;;;3.97;;
9880;SDS011;4979;51.014;6.678;2023-08-24T03:26:14;4.45;;;3.58;;
9880;SDS011;4979;51.014;6.678;2023-08-24T03:28:41;6.03;;;4.15;;
9880;SDS011;4979;51.014;6.678;2023-08-24T03:31:07;6.35;;;3.38;;
9880;SDS011;4979;51.014;6.678;2023-08-24T03:33:33;7.78;;;3.95;;
9880;SDS011;4979;51.014;6.678;2023-08-24T03:35:59;9.77;;;4.05;;
9880;SDS011;4979;51.014;6.678;2023-08-24T03:38:25;7.65;;;4.13;;
9880;SDS011;4979;51.014;6.678;2023-08-24T03:40:51;8.82;;;3.72;;
9880;SDS011;4979;51.014;6.678;2023-08-24T03:43:24;8.38;;;4.75;;
9880;SDS011;4979;51.014;6.678;2023-08-24T03:45:49;9.13;;;4.32;;
9880;SDS011;4979;51.014;6.678;2023-08-24T03:48:15;6.25;;;4.25;;
9880;SDS011;4979;51.014;6.678;2023-08-24T03:50:41;8.50;;;4.18;;
9880;SDS011;4979;51.014;6.678;2023-08-24T03:53:06;12.23;;;4.18;;
9880;SDS011;4979;51.014;6.678;2023-08-24T03:55:32;7.95;;;4.35;;
9880;SDS011;4979;51.014;6.678;2023-08-24T03:57:58;6.95;;;4.40;;
9880;SDS011;4979;51.014;6.678;2023-08-24T04:00:23;7.97;;;4.05;;
9880;SDS011;4979;51.014;6.678;2023-08-24T04:02:49;10.52;;;4.47;;
9880;SDS011;4979;51.014;6.678;2023-08-24T04:05:15;6.22;;;3.97;;
9880;SDS011;4979;51.014;6.678;2023-08-24T04:07:40;6.47;;;4.03;;
9880;SDS011;4979;51.014;6.678;2023-08-24T04:10:07;9.30;;;4.32;;
9880;SDS011;4979;51.014;6.678;2023-08-24T04:12:33;8.07;;;3.95;;
9880;SDS011;4979;51.014;6.678;2023-08-24T04:14:58;9.20;;;4.05;;
9880;SDS011;4979;51.014;6.678;2023-08-24T04:17:24;7.03;;;4.07;;
9880;SDS011;4979;51.014;6.678;2023-08-24T04:19:50;6.85;;;4.53;;
9880;SDS011;4979;51.014;6.678;2023-08-24T04:22:16;7.53;;;4.55;;
9880;SDS011;4979;51.014;6.678;2023-08-24T04:24:41;5.55;;;3.80;;
9880;SDS011;4979;51.014;6.678;2023-08-24T04:27:07;5.93;;;4.00;;
9880;SDS011;4979;51.014;6.678;2023-08-24T04:29:33;8.63;;;4.95;;
9880;SDS011;4979;51.014;6.678;2023-08-24T04:31:58;11.00;;;4.72;;
9880;SDS011;4979;51.014;6.678;2023-08-24T04:34:24;7.90;;;4.40;;
9880;SDS011;4979;51.014;6.678;2023-08-24T04:36:49;10.70;;;4.60;;
9880;SDS011;4979;51.014;6.678;2023-08-24T04:39:15;11.82;;;5.13;;
9880;SDS011;4979;51.014;6.678;2023-08-24T04:41:41;9.73;;;4.50;;
9880;SDS011;4979;51.014;6.678;2023-08-24T04:44:07;10.70;;;4.22;;
9880;SDS011;4979;51.014;6.678;2023-08-24T04:46:33;7.57;;;4.68;;
9880;SDS011;4979;51.014;6.678;2023-08-24T04:48:59;7.72;;;5.10;;
9880;SDS011;4979;51.014;6.678;2023-08-24T04:51:24;10.10;;;5.28;;
9880;SDS011;4979;51.014;6.678;2023-08-24T04:53:52;8.60;;;5.13;;
9880;SDS011;4979;51.014;6.678;2023-08-24T04:56:18;5.22;;;4.45;;
9880;SDS011;4979;51.014;6.678;2023-08-24T04:58:54;12.05;;;5.32;;
9880;SDS011;4979;51.014;6.678;2023-08-24T05:01:21;7.45;;;4.97;;
9880;SDS011;4979;51.014;6.678;2023-08-24T05:03:50;9.35;;;5.68;;
9880;SDS011;4979;51.014;6.678;2023-08-24T05:06:17;10.25;;;6.32;;
9880;SDS011;4979;51.014;6.678;2023-08-24T05:08:43;8.80;;;5.88;;
9880;SDS011;4979;51.014;6.678;2023-08-24T05:11:22;10.48;;;6.03;;
9880;SDS011;4979;51.014;6.678;2023-08-24T05:13:49;8.68;;;5.93;;
9880;SDS011;4979;51.014;6.678;2023-08-24T05:16:15;13.45;;;6.82;;
9880;SDS011;4979;51.014;6.678;2023-08-24T05:18:41;10.48;;;5.82;;
9880;SDS011;4979;51.014;6.678;2023-08-24T05:21:06;10.60;;;6.47;;
9880;SDS011;4979;51.014;6.678;2023-08-24T05:23:33;11.65;;;6.85;;
9880;SDS011;4979;51.014;6.678;2023-08-24T05:25:59;14.50;;;6.63;;
9880;SDS011;4979;51.014;6.678;2023-08-24T05:28:26;9.38;;;6.25;;
9880;SDS011;4979;51.014;6.678;2023-08-24T05:30:53;11.32;;;7.00;;
9880;SDS011;4979;51.014;6.678;2023-08-24T05:33:19;13.18;;;7.63;;
9880;SDS011;4979;51.014;6.678;2023-08-24T05:35:46;13.85;;;7.50;;
9880;SDS011;4979;51.014;6.678;2023-08-24T05:38:12;11.55;;;7.63;;
9880;SDS011;4979;51.014;6.678;2023-08-24T05:40:38;12.40;;;8.15;;
9880;SDS011;4979;51.014;6.678;2023-08-24T05:43:04;13.00;;;8.40;;
9880;SDS011;4979;51.014;6.678;2023-08-24T05:45:29;14.63;;;8.55;;
9880;SDS011;4979;51.014;6.678;2023-08-24T05:47:55;18.73;;;9.88;;
9880;SDS011;4979;51.014;6.678;2023-08-24T05:50:21;11.77;;;8.90;;
9880;SDS011;4979;51.014;6.678;2023-08-24T05:52:46;9.00;;;7.82;;
9880;SDS011;4979;51.014;6.678;2023-08-24T05:55:12;14.60;;;8.65;;
9880;SDS011;4979;51.014;6.678;2023-08-24T05:57:37;11.93;;;7.60;;
9880;SDS011;4979;51.014;6.678;2023-08-24T06:00:04;10.45;;;6.72;;
9880;SDS011;4979;51.014;6.678;2023-08-24T06:02:34;13.63;;;7.40;;
9880;SDS011;4979;51.014;6.678;2023-08-24T06:05:00;10.77;;;7.07;;
9880;SDS011;4979;51.014;6.678;2023-08-24T06:07:26;13.20;;;7.13;;
9880;SDS011;4979;51.014;6.678;2023-08-24T06:09:52;9.15;;;7.00;;
9880;SDS011;4979;51.014;6.678;2023-08-24T06:12:18;13.07;;;6.35;;
9880;SDS011;4979;51.014;6.678;2023-08-24T06:14:43;12.57;;;6.47;;
9880;SDS011;4979;51.014;6.678;2023-08-24T06:17:09;12.45;;;6.30;;
9880;SDS011;4979;51.014;6.678;2023-08-24T06:19:34;8.88;;;6.05;;
9880;SDS011;4979;51.014;6.678;2023-08-24T06:22:00;11.32;;;5.95;;
9880;SDS011;4979;51.014;6.678;2023-08-24T06:24:25;8.95;;;6.20;;
9880;SDS011;4979;51.014;6.678;2023-08-24T06:26:51;8.13;;;5.80;;
9880;SDS011;4979;51.014;6.678;2023-08-24T06:29:16;13.52;;;6.25;;
9880;SDS011;4979;51.014;6.678;2023-08-24T06:31:42;10.52;;;6.20;;
9880;SDS011;4979;51.014;6.678;2023-08-24T06:34:07;10.23;;;6.07;;
9880;SDS011;4979;51.014;6.678;2023-08-24T06:36:33;10.38;;;6.55;;
9880;SDS011;4979;51.014;6.678;2023-08-24T06:38:58;15.68;;;6.03;;
9880;SDS011;4979;51.014;6.678;2023-08-24T06:41:24;9.88;;;6.78;;
9880;SDS011;4979;51.014;6.678;2023-08-24T06:43:49;13.45;;;6.32;;
9880;SDS011;4979;51.014;6.678;2023-08-24T06:46:15;10.85;;;5.72;;
9880;SDS011;4979;51.014;6.678;2023-08-24T06:48:40;9.98;;;5.85;;
9880;SDS011;4979;51.014;6.678;2023-08-24T06:51:09;11.52;;;6.05;;
9880;SDS011;4979;51.014;6.678;2023-08-24T06:53:35;6.90;;;5.97;;
9880;SDS011;4979;51.014;6.678;2023-08-24T06:56:01;13.23;;;6.15;;
9880;SDS011;4979;51.014;6.678;2023-08-24T06:58:27;10.30;;;6.13;;
9880;SDS011;4979;51.014;6.678;2023-08-24T07:00:52;9.40;;;6.55;;
9880;SDS011;4979;51.014;6.678;2023-08-24T07:03:19;12.38;;;6.50;;
9880;SDS011;4979;51.014;6.678;2023-08-24T07:05:45;11.23;;;5.90;;
9880;SDS011;4979;51.014;6.678;2023-08-24T07:08:12;16.35;;;5.80;;
9880;SDS011;4979;51.014;6.678;2023-08-24T07:10:38;10.15;;;5.85;;
9880;SDS011;4979;51.014;6.678;2023-08-24T07:13:04;12.07;;;5.53;;
9880;SDS011;4979;51.014;6.678;2023-08-24T07:15:32;9.98;;;5.57;;
9880;SDS011;4979;51.014;6.678;2023-08-24T07:18:01;9.25;;;5.05;;
9880;SDS011;4979;51.014;6.678;2023-08-24T07:20:27;10.38;;;5.28;;
9880;SDS011;4979;51.014;6.678;2023-08-24T07:22:53;12.43;;;5.75;;
9880;SDS011;4979;51.014;6.678;2023-08-24T07:25:19;11.23;;;5.35;;
9880;SDS011;4979;51.014;6.678;2023-08-24T07:27:46;7.80;;;5.57;;
9880;SDS011;4979;51.014;6.678;2023-08-24T07:30:12;10.27;;;5.45;;
9880;SDS011;4979;51.014;6.678;2023-08-24T07:32:38;8.85;;;5.32;;
9880;SDS011;4979;51.014;6.678;2023-08-24T07:35:03;10.13;;;5.07;;
9880;SDS011;4979;51.014;6.678;2023-08-24T07:37:31;8.68;;;4.90;;
9880;SDS011;4979;51.014;6.678;2023-08-24T07:39:57;10.95;;;5.55;;
9880;SDS011;4979;51.014;6.678;2023-08-24T07:42:22;8.88;;;5.40;;
9880;SDS011;4979;51.014;6.678;2023-08-24T07:44:48;6.10;;;5.20;;
9880;SDS011;4979;51.014;6.678;2023-08-24T07:47:14;10.55;;;5.30;;
9880;SDS011;4979;51.014;6.678;2023-08-24T07:49:39;8.00;;;4.72;;
9880;SDS011;4979;51.014;6.678;2023-08-24T07:52:09;6.43;;;5.25;;
9880;SDS011;4979;51.014;6.678;2023-08-24T07:54:36;9.32;;;4.90;;
9880;SDS011;4979;51.014;6.678;2023-08-24T07:57:01;10.20;;;5.25;;
9880;SDS011;4979;51.014;6.678;2023-08-24T07:59:27;7.15;;;5.13;;
9880;SDS011;4979;51.014;6.678;2023-08-24T08:01:52;9.15;;;4.97;;
9880;SDS011;4979;51.014;6.678;2023-08-24T08:04:18;7.57;;;5.00;;
9880;SDS011;4979;51.014;6.678;2023-08-24T08:06:43;10.00;;;5.18;;
9880;SDS011;4979;51.014;6.678;2023-08-24T08:09:09;8.75;;;4.65;;
9880;SDS011;4979;51.014;6.678;2023-08-24T08:11:34;10.45;;;4.80;;
9880;SDS011;4979;51.014;6.678;2023-08-24T08:14:00;10.10;;;4.32;;
9880;SDS011;4979;51.014;6.678;2023-08-24T08:16:26;7.55;;;4.38;;
9880;SDS011;4979;51.014;6.678;2023-08-24T08:18:52;5.10;;;4.00;;
9880;SDS011;4979;51.014;6.678;2023-08-24T08:21:17;9.55;;;4.57;;
9880;SDS011;4979;51.014;6.678;2023-08-24T08:23:43;8.13;;;4.22;;
9880;SDS011;4979;51.014;6.678;2023-08-24T08:26:10;7.13;;;4.40;;
9880;SDS011;4979;51.014;6.678;2023-08-24T08:28:36;9.85;;;4.88;;
9880;SDS011;4979;51.014;6.678;2023-08-24T08:31:02;6.75;;;4.50;;
9880;SDS011;4979;51.014;6.678;2023-08-24T08:33:28;6.72;;;3.95;;
9880;SDS011;4979;51.014;6.678;2023-08-24T08:35:54;7.20;;;4.53;;
9880;SDS011;4979;51.014;6.678;2023-08-24T08:38:20;7.97;;;4.63;;
9880;SDS011;4979;51.014;6.678;2023-08-24T08:40:51;9.50;;;4.70;;
9880;SDS011;4979;51.014;6.678;2023-08-24T08:43:20;7.45;;;4.55;;
9880;SDS011;4979;51.014;6.678;2023-08-24T08:45:48;9.07;;;4.13;;
9880;SDS011;4979;51.014;6.678;2023-08-24T08:48:15;7.65;;;4.07;;
9880;SDS011;4979;51.014;6.678;2023-08-24T08:50:40;9.50;;;4.25;;
9880;SDS011;4979;51.014;6.678;2023-08-24T08:53:06;7.00;;;4.80;;
9880;SDS011;4979;51.014;6.678;2023-08-24T08:55:31;8.55;;;4.20;;
9880;SDS011;4979;51.014;6.678;2023-08-24T08:57:58;9.13;;;4.40;;
9880;SDS011;4979;51.014;6.678;2023-08-24T09:00:25;7.80;;;3.95;;
9880;SDS011;4979;51.014;6.678;2023-08-24T09:02:53;6.75;;;4.22;;
9880;SDS011;4979;51.014;6.678;2023-08-24T09:05:20;7.63;;;4.10;;
9880;SDS011;4979;51.014;6.678;2023-08-24T09:07:46;9.13;;;4.50;;
9880;SDS011;4979;51.014;6.678;2023-08-24T09:10:13;6.50;;;3.72;;
9880;SDS011;4979;51.014;6.678;2023-08-24T09:12:38;6.45;;;3.85;;
9880;SDS011;4979;51.014;6.678;2023-08-24T09:15:05;6.03;;;3.90;;
9880;SDS011;4979;51.014;6.678;2023-08-24T09:17:31;6.90;;;3.88;;
9880;SDS011;4979;51.014;6.678;2023-08-24T09:19:58;10.45;;;4.22;;
9880;SDS011;4979;51.014;6.678;2023-08-24T09:22:25;8.00;;;3.67;;
9880;SDS011;4979;51.014;6.678;2023-08-24T09:24:50;6.68;;;3.63;;
9880;SDS011;4979;51.014;6.678;2023-08-24T09:27:17;9.50;;;3.30;;
9880;SDS011;4979;51.014;6.678;2023-08-24T09:29:47;5.47;;;2.83;;
9880;SDS011;4979;51.014;6.678;2023-08-24T09:32:23;9.82;;;3.10;;
9880;SDS011;4979;51.014;6.678;2023-08-24T09:34:52;5.13;;;3.00;;
9880;SDS011;4979;51.014;6.678;2023-08-24T09:37:17;7.30;;;3.17;;
9880;SDS011;4979;51.014;6.678;2023-08-24T09:39:44;4.90;;;2.92;;
9880;SDS011;4979;51.014;6.678;2023-08-24T09:42:10;5.75;;;2.88;;
9880;SDS011;4979;51.014;6.678;2023-08-24T09:44:35;4.70;;;3.17;;
9880;SDS011;4979;51.014;6.678;2023-08-24T09:47:01;4.57;;;3.10;;
9880;SDS011;4979;51.014;6.678;2023-08-24T09:49:28;5.95;;;3.05;;
9880;SDS011;4979;51.014;6.678;2023-08-24T09:51:56;6.57;;;3.15;;
9880;SDS011;4979;51.014;6.678;2023-08-24T09:54:24;7.47;;;3.08;;
9880;SDS011;4979;51.014;6.678;2023-08-24T09:56:52;4.28;;;3.10;;
9880;SDS011;4979;51.014;6.678;2023-08-24T09:59:19;4.45;;;3.10;;
9880;SDS011;4979;51.014;6.678;2023-08-24T10:01:50;5.53;;;3.08;;
9880;SDS011;4979;51.014;6.678;2023-08-24T10:04:28;8.50;;;3.25;;
9880;SDS011;4979;51.014;6.678;2023-08-24T10:07:03;7.85;;;3.50;;
9880;SDS011;4979;51.014;6.678;2023-08-24T10:09:53;7.22;;;3.22;;
9880;SDS011;4979;51.014;6.678;2023-08-24T10:12:26;8.23;;;2.95;;
9880;SDS011;4979;51.014;6.678;2023-08-24T10:14:56;10.10;;;3.00;;
9880;SDS011;4979;51.014;6.678;2023-08-24T10:17:37;7.03;;;3.00;;
9880;SDS011;4979;51.014;6.678;2023-08-24T10:20:04;7.75;;;3.30;;
9880;SDS011;4979;51.014;6.678;2023-08-24T10:22:34;6.53;;;3.03;;
9880;SDS011;4979;51.014;6.678;2023-08-24T10:25:01;6.43;;;2.88;;
9880;SDS011;4979;51.014;6.678;2023-08-24T10:27:30;8.68;;;3.08;;
9880;SDS011;4979;51.014;6.678;2023-08-24T10:29:56;3.90;;;3.20;;
9880;SDS011;4979;51.014;6.678;2023-08-24T10:32:25;6.93;;;3.53;;
9880;SDS011;4979;51.014;6.678;2023-08-24T10:34:51;5.85;;;3.20;;
9880;SDS011;4979;51.014;6.678;2023-08-24T10:37:18;7.03;;;3.20;;
9880;SDS011;4979;51.014;6.678;2023-08-24T10:39:50;7.05;;;2.70;;
9880;SDS011;4979;51.014;6.678;2023-08-24T10:42:16;5.20;;;2.65;;
9880;SDS011;4979;51.014;6.678;2023-08-24T10:44:45;6.68;;;3.08;;
9880;SDS011;4979;51.014;6.678;2023-08-24T10:47:16;7.95;;;3.88;;
9880;SDS011;4979;51.014;6.678;2023-08-24T10:52:31;5.65;;;3.25;;
9880;SDS011;4979;51.014;6.678;2023-08-24T10:55:00;6.50;;;3.00;;
9880;SDS011;4979;51.014;6.678;2023-08-24T10:57:34;5.82;;;3.47;;
9880;SDS011;4979;51.014;6.678;2023-08-24T11:02:30;5.40;;;3.83;;
9880;SDS011;4979;51.014;6.678;2023-08-24T11:05:14;4.93;;;3.30;;
9880;SDS011;4979;51.014;6.678;2023-08-24T11:07:50;6.22;;;3.65;;
9880;SDS011;4979;51.014;6.678;2023-08-24T11:15:34;7.32;;;3.50;;
9880;SDS011;4979;51.014;6.678;2023-08-24T11:20:54;5.45;;;3.25;;
9880;SDS011;4979;51.014;6.678;2023-08-24T11:23:22;12.60;;;3.38;;
9880;SDS011;4979;51.014;6.678;2023-08-24T11:25:49;4.15;;;2.90;;
9880;SDS011;4979;51.014;6.678;2023-08-24T11:28:20;5.80;;;3.25;;
9880;SDS011;4979;51.014;6.678;2023-08-24T11:30:46;7.53;;;2.92;;
9880;SDS011;4979;51.014;6.678;2023-08-24T11:33:12;11.40;;;3.30;;
9880;SDS011;4979;51.014;6.678;2023-08-24T11:35:41;10.25;;;3.08;;
9880;SDS011;4979;51.014;6.678;2023-08-24T11:38:08;5.55;;;3.30;;
9880;SDS011;4979;51.014;6.678;2023-08-24T11:40:33;10.18;;;3.50;;
9880;SDS011;4979;51.014;6.678;2023-08-24T11:42:59;7.40;;;3.20;;
9880;SDS011;4979;51.014;6.678;2023-08-24T11:45:29;7.63;;;2.92;;
9880;SDS011;4979;51.014;6.678;2023-08-24T11:47:57;7.53;;;3.03;;
9880;SDS011;4979;51.014;6.678;2023-08-24T11:50:25;8.75;;;2.92;;
9880;SDS011;4979;51.014;6.678;2023-08-24T11:52:52;5.47;;;3.05;;
9880;SDS011;4979;51.014;6.678;2023-08-24T11:55:18;6.63;;;3.10;;
9880;SDS011;4979;51.014;6.678;2023-08-24T11:57:45;5.25;;;3.08;;
9880;SDS011;4979;51.014;6.678;2023-08-24T12:00:11;9.80;;;3.20;;
9880;SDS011;4979;51.014;6.678;2023-08-24T12:02:38;10.80;;;3.42;;
9880;SDS011;4979;51.014;6.678;2023-08-24T12:05:05;5.20;;;3.33;;
9880;SDS011;4979;51.014;6.678;2023-08-24T12:07:32;7.68;;;2.70;;
9880;SDS011;4979;51.014;6.678;2023-08-24T12:10:00;6.63;;;3.22;;
9880;SDS011;4979;51.014;6.678;2023-08-24T12:12:27;7.38;;;3.13;;
9880;SDS011;4979;51.014;6.678;2023-08-24T12:14:54;4.95;;;3.08;;
9880;SDS011;4979;51.014;6.678;2023-08-24T12:17:20;6.05;;;3.67;;
9880;SDS011;4979;51.014;6.678;2023-08-24T12:19:53;9.98;;;3.85;;
9880;SDS011;4979;51.014;6.678;2023-08-24T12:22:23;8.05;;;3.65;;
9880;SDS011;4979;51.014;6.678;2023-08-24T12:24:49;8.02;;;4.03;;
9880;SDS011;4979;51.014;6.678;2023-08-24T12:27:24;10.30;;;3.63;;
9880;SDS011;4979;51.014;6.678;2023-08-24T12:29:51;7.07;;;3.55;;
9880;SDS011;4979;51.014;6.678;2023-08-24T12:32:17;11.82;;;4.38;;
9880;SDS011;4979;51.014;6.678;2023-08-24T12:34:51;8.45;;;3.83;;
9880;SDS011;4979;51.014;6.678;2023-08-24T12:37:17;10.65;;;4.50;;
9880;SDS011;4979;51.014;6.678;2023-08-24T12:39:43;9.23;;;5.13;;
9880;SDS011;4979;51.014;6.678;2023-08-24T12:42:08;13.38;;;4.50;;
9880;SDS011;4979;51.014;6.678;2023-08-24T12:44:34;14.43;;;4.75;;
9880;SDS011;4979;51.014;6.678;2023-08-24T12:47:01;8.52;;;4.18;;
9880;SDS011;4979;51.014;6.678;2023-08-24T12:49:28;7.07;;;4.10;;
9880;SDS011;4979;51.014;6.678;2023-08-24T12:51:53;13.90;;;5.43;;
9880;SDS011;4979;51.014;6.678;2023-08-24T12:54:19;15.63;;;6.57;;
9880;SDS011;4979;51.014;6.678;2023-08-24T12:56:44;12.98;;;5.43;;
9880;SDS011;4979;51.014;6.678;2023-08-24T12:59:10;11.63;;;4.70;;
9880;SDS011;4979;51.014;6.678;2023-08-24T13:01:37;9.88;;;4.07;;
9880;SDS011;4979;51.014;6.678;2023-08-24T13:04:03;9.23;;;4.38;;
9880;SDS011;4979;51.014;6.678;2023-08-24T13:06:29;9.73;;;4.57;;
9880;SDS011;4979;51.014;6.678;2023-08-24T13:08:54;10.80;;;4.35;;
9880;SDS011;4979;51.014;6.678;2023-08-24T13:11:21;8.05;;;4.50;;
9880;SDS011;4979;51.014;6.678;2023-08-24T13:13:47;8.48;;;3.90;;
9880;SDS011;4979;51.014;6.678;2023-08-24T13:16:13;8.77;;;5.82;;
9880;SDS011;4979;51.014;6.678;2023-08-24T13:18:39;6.78;;;3.88;;
9880;SDS011;4979;51.014;6.678;2023-08-24T13:21:05;8.45;;;4.07;;
9880;SDS011;4979;51.014;6.678;2023-08-24T13:23:31;10.30;;;3.78;;
9880;SDS011;4979;51.014;6.678;2023-08-24T13:25:57;5.85;;;3.35;;
9880;SDS011;4979;51.014;6.678;2023-08-24T13:28:23;7.82;;;3.78;;
9880;SDS011;4979;51.014;6.678;2023-08-24T13:30:48;6.70;;;3.50;;
9880;SDS011;4979;51.014;6.678;2023-08-24T13:33:14;5.93;;;3.30;;
9880;SDS011;4979;51.014;6.678;2023-08-24T13:35:40;9.85;;;3.63;;
9880;SDS011;4979;51.014;6.678;2023-08-24T13:38:05;6.95;;;3.03;;
9880;SDS011;4979;51.014;6.678;2023-08-24T13:40:31;9.18;;;3.50;;
9880;SDS011;4979;51.014;6.678;2023-08-24T13:42:57;5.18;;;3.00;;
9880;SDS011;4979;51.014;6.678;2023-08-24T13:45:23;9.75;;;4.03;;
9880;SDS011;4979;51.014;6.678;2023-08-24T13:47:48;14.10;;;5.18;;
9880;SDS011;4979;51.014;6.678;2023-08-24T13:50:14;16.20;;;5.80;;
9880;SDS011;4979;51.014;6.678;2023-08-24T13:52:39;15.02;;;5.28;;
9880;SDS011;4979;51.014;6.678;2023-08-24T13:55:05;6.63;;;3.97;;
9880;SDS011;4979;51.014;6.678;2023-08-24T13:57:31;8.48;;;4.30;;
9880;SDS011;4979;51.014;6.678;2023-08-24T13:59:57;9.25;;;3.88;;
9880;SDS011;4979;51.014;6.678;2023-08-24T14:02:22;8.90;;;3.30;;
9880;SDS011;4979;51.014;6.678;2023-08-24T14:04:48;7.60;;;3.60;;
9880;SDS011;4979;51.014;6.678;2023-08-24T14:07:13;11.35;;;3.60;;
9880;SDS011;4979;51.014;6.678;2023-08-24T14:09:39;6.35;;;3.15;;
9880;SDS011;4979;51.014;6.678;2023-08-24T14:12:04;6.35;;;3.00;;
9880;SDS011;4979;51.014;6.678;2023-08-24T14:14:30;5.28;;;2.80;;
9880;SDS011;4979;51.014;6.678;2023-08-24T14:16:56;5.55;;;2.85;;
9880;SDS011;4979;51.014;6.678;2023-08-24T14:19:22;8.32;;;2.90;;
9880;SDS011;4979;51.014;6.678;2023-08-24T14:21:48;6.45;;;3.13;;
9880;SDS011;4979;51.014;6.678;2023-08-24T14:24:14;8.00;;;3.25;;
9880;SDS011;4979;51.014;6.678;2023-08-24T14:26:39;9.35;;;3.00;;
9880;SDS011;4979;51.014;6.678;2023-08-24T14:29:10;6.82;;;3.03;;
9880;SDS011;4979;51.014;6.678;2023-08-24T14:31:36;5.57;;;2.70;;
9880;SDS011;4979;51.014;6.678;2023-08-24T14:34:02;5.93;;;3.53;;
9880;SDS011;4979;51.014;6.678;2023-08-24T14:36:28;9.40;;;2.72;;
9880;SDS011;4979;51.014;6.678;2023-08-24T14:38:54;10.98;;;4.05;;
9880;SDS011;4979;51.014;6.678;2023-08-24T14:41:20;5.78;;;2.53;;
9880;SDS011;4979;51.014;6.678;2023-08-24T14:43:46;7.00;;;3.08;;
9880;SDS011;4979;51.014;6.678;2023-08-24T14:46:12;4.50;;;2.85;;
9880;SDS011;4979;51.014;6.678;2023-08-24T14:48:37;11.27;;;3.15;;
9880;SDS011;4979;51.014;6.678;2023-08-24T14:51:04;6.07;;;2.75;;
9880;SDS011;4979;51.014;6.678;2023-08-24T14:53:30;8.15;;;3.03;;
9880;SDS011;4979;51.014;6.678;2023-08-24T14:55:55;5.03;;;3.30;;
9880;SDS011;4979;51.014;6.678;2023-08-24T14:58:22;6.07;;;3.00;;
9880;SDS011;4979;51.014;6.678;2023-08-24T15:00:52;10.05;;;3.08;;
9880;SDS011;4979;51.014;6.678;2023-08-24T15:03:20;7.10;;;3.30;;
9880;SDS011;4979;51.014;6.678;2023-08-24T15:05:55;8.82;;;2.83;;
9880;SDS011;4979;51.014;6.678;2023-08-24T15:08:25;7.10;;;3.35;;
9880;SDS011;4979;51.014;6.678;2023-08-24T15:10:50;5.18;;;3.03;;
9880;SDS011;4979;51.014;6.678;2023-08-24T15:13:18;5.30;;;2.35;;
9880;SDS011;4979;51.014;6.678;2023-08-24T15:15:44;8.43;;;2.50;;
9880;SDS011;4979;51.014;6.678;2023-08-24T15:18:10;6.82;;;2.78;;
9880;SDS011;4979;51.014;6.678;2023-08-24T15:20:36;5.85;;;2.60;;
9880;SDS011;4979;51.014;6.678;2023-08-24T15:23:02;4.43;;;2.72;;
9880;SDS011;4979;51.014;6.678;2023-08-24T15:25:28;5.75;;;2.60;;